sensor_id;sensor_type;location;lat;lon;timestamp;P1;durP1;ratioP1;P2;durP2;ratioP2
29236;SDS011;16266;50.866;4.398;2023-09-07T00:01:54;545.70;;;519.03;;
29236;SDS011;16266;50.866;4.398;2023-09-07T00:04:20;529.88;;;503.35;;
29236;SDS011;16266;50.866;4.398;2023-09-07T00:06:48;489.70;;;465.30;;
29236;SDS011;16266;50.866;4.398;2023-09-07T00:09:15;466.55;;;443.75;;
29236;SDS011;16266;50.866;4.398;2023-09-07T00:11:43;369.92;;;351.95;;
29236;SDS011;16266;50.866;4.398;2023-09-07T00:14:10;351.50;;;334.73;;
29236;SDS011;16266;50.866;4.398;2023-09-07T00:16:35;358.83;;;341.48;;
29236;SDS011;16266;50.866;4.398;2023-09-07T00:19:03;364.40;;;347.13;;
29236;SDS011;16266;50.866;4.398;2023-09-07T00:21:29;350.55;;;333.30;;
29236;SDS011;16266;50.866;4.398;2023-09-07T00:23:55;367.42;;;349.23;;
29236;SDS011;16266;50.866;4.398;2023-09-07T00:26:21;374.80;;;356.13;;
29236;SDS011;16266;50.866;4.398;2023-09-07T00:28:46;364.60;;;346.65;;
29236;SDS011;16266;50.866;4.398;2023-09-07T00:31:12;408.20;;;387.88;;
29236;SDS011;16266;50.866;4.398;2023-09-07T00:33:38;477.27;;;453.45;;
29236;SDS011;16266;50.866;4.398;2023-09-07T00:36:03;555.83;;;527.53;;
29236;SDS011;16266;50.866;4.398;2023-09-07T00:38:29;584.53;;;554.20;;
29236;SDS011;16266;50.866;4.398;2023-09-07T00:40:55;545.53;;;517.83;;
29236;SDS011;16266;50.866;4.398;2023-09-07T00:43:21;418.95;;;398.02;;
29236;SDS011;16266;50.866;4.398;2023-09-07T00:45:46;291.67;;;278.00;;
29236;SDS011;16266;50.866;4.398;2023-09-07T00:48:13;236.70;;;225.85;;
29236;SDS011;16266;50.866;4.398;2023-09-07T00:50:40;323.48;;;307.58;;
29236;SDS011;16266;50.866;4.398;2023-09-07T00:53:07;421.45;;;400.42;;
29236;SDS011;16266;50.866;4.398;2023-09-07T00:55:33;647.92;;;613.03;;
29236;SDS011;16266;50.866;4.398;2023-09-07T00:58:00;797.67;;;750.42;;
29236;SDS011;16266;50.866;4.398;2023-09-07T01:00:28;825.90;;;776.38;;
29236;SDS011;16266;50.866;4.398;2023-09-07T01:02:54;728.92;;;690.33;;
29236;SDS011;16266;50.866;4.398;2023-09-07T01:08:24;551.15;;;525.17;;
29236;SDS011;16266;50.866;4.398;2023-09-07T01:10:52;552.60;;;526.47;;
29236;SDS011;16266;50.866;4.398;2023-09-07T01:13:19;496.92;;;474.02;;
29236;SDS011;16266;50.866;4.398;2023-09-07T01:15:45;409.05;;;390.77;;
29236;SDS011;16266;50.866;4.398;2023-09-07T01:18:11;426.90;;;407.83;;
29236;SDS011;16266;50.866;4.398;2023-09-07T01:20:39;471.27;;;449.67;;
29236;SDS011;16266;50.866;4.398;2023-09-07T01:23:06;356.38;;;340.75;;
29236;SDS011;16266;50.866;4.398;2023-09-07T01:25:32;243.15;;;232.98;;
29236;SDS011;16266;50.866;4.398;2023-09-07T01:27:59;273.58;;;262.08;;
29236;SDS011;16266;50.866;4.398;2023-09-07T01:30:27;351.63;;;336.70;;
29236;SDS011;16266;50.866;4.398;2023-09-07T01:32:53;418.33;;;400.00;;
29236;SDS011;16266;50.866;4.398;2023-09-07T01:35:19;403.02;;;386.05;;
29236;SDS011;16266;50.866;4.398;2023-09-07T01:37:47;420.83;;;403.02;;
29236;SDS011;16266;50.866;4.398;2023-09-07T01:40:13;433.02;;;414.58;;
29236;SDS011;16266;50.866;4.398;2023-09-07T01:42:38;412.92;;;395.35;;
29236;SDS011;16266;50.866;4.398;2023-09-07T01:45:04;423.92;;;405.88;;
29236;SDS011;16266;50.866;4.398;2023-09-07T01:47:30;380.73;;;364.65;;
29236;SDS011;16266;50.866;4.398;2023-09-07T01:49:56;406.27;;;389.25;;
29236;SDS011;16266;50.866;4.398;2023-09-07T01:52:22;396.73;;;380.10;;
29236;SDS011;16266;50.866;4.398;2023-09-07T01:54:48;410.58;;;393.17;;
29236;SDS011;16266;50.866;4.398;2023-09-07T01:57:13;378.73;;;362.73;;
29236;SDS011;16266;50.866;4.398;2023-09-07T01:59:39;335.05;;;321.33;;
29236;SDS011;16266;50.866;4.398;2023-09-07T02:02:05;249.25;;;239.30;;
29236;SDS011;16266;50.866;4.398;2023-09-07T02:04:30;187.35;;;179.93;;
29236;SDS011;16266;50.866;4.398;2023-09-07T02:06:56;188.80;;;181.13;;
29236;SDS011;16266;50.866;4.398;2023-09-07T02:09:21;223.02;;;214.05;;
29236;SDS011;16266;50.866;4.398;2023-09-07T02:11:47;260.10;;;249.88;;
29236;SDS011;16266;50.866;4.398;2023-09-07T02:14:13;216.48;;;208.00;;
29236;SDS011;16266;50.866;4.398;2023-09-07T02:16:39;271.48;;;260.55;;
29236;SDS011;16266;50.866;4.398;2023-09-07T02:19:05;240.05;;;230.60;;
29236;SDS011;16266;50.866;4.398;2023-09-07T02:21:32;223.45;;;214.73;;
29236;SDS011;16266;50.866;4.398;2023-09-07T02:23:58;224.82;;;216.00;;
29236;SDS011;16266;50.866;4.398;2023-09-07T02:26:23;235.75;;;226.25;;
29236;SDS011;16266;50.866;4.398;2023-09-07T02:28:49;272.42;;;261.55;;
29236;SDS011;16266;50.866;4.398;2023-09-07T02:31:15;348.10;;;333.98;;
29236;SDS011;16266;50.866;4.398;2023-09-07T02:33:42;404.85;;;388.17;;
29236;SDS011;16266;50.866;4.398;2023-09-07T02:36:07;410.15;;;392.90;;
29236;SDS011;16266;50.866;4.398;2023-09-07T02:38:33;443.67;;;425.05;;
29236;SDS011;16266;50.866;4.398;2023-09-07T02:40:58;439.67;;;420.75;;
29236;SDS011;16266;50.866;4.398;2023-09-07T02:43:24;446.17;;;427.38;;
29236;SDS011;16266;50.866;4.398;2023-09-07T02:45:50;423.40;;;405.75;;
29236;SDS011;16266;50.866;4.398;2023-09-07T02:48:16;423.15;;;404.98;;
29236;SDS011;16266;50.866;4.398;2023-09-07T02:50:42;421.90;;;404.13;;
29236;SDS011;16266;50.866;4.398;2023-09-07T02:53:07;429.83;;;411.85;;
29236;SDS011;16266;50.866;4.398;2023-09-07T02:55:33;410.02;;;393.13;;
29236;SDS011;16266;50.866;4.398;2023-09-07T02:58:02;395.98;;;379.55;;
29236;SDS011;16266;50.866;4.398;2023-09-07T03:00:28;369.58;;;354.38;;
29236;SDS011;16266;50.866;4.398;2023-09-07T03:02:54;271.42;;;260.67;;
29236;SDS011;16266;50.866;4.398;2023-09-07T03:05:19;237.75;;;228.38;;
29236;SDS011;16266;50.866;4.398;2023-09-07T03:07:46;239.70;;;230.40;;
29236;SDS011;16266;50.866;4.398;2023-09-07T03:10:12;219.60;;;210.85;;
29236;SDS011;16266;50.866;4.398;2023-09-07T03:12:38;222.07;;;213.32;;
29236;SDS011;16266;50.866;4.398;2023-09-07T03:15:04;206.82;;;198.57;;
29236;SDS011;16266;50.866;4.398;2023-09-07T03:17:31;174.82;;;167.07;;
29236;SDS011;16266;50.866;4.398;2023-09-07T03:19:56;195.75;;;187.70;;
29236;SDS011;16266;50.866;4.398;2023-09-07T03:22:23;264.02;;;253.75;;
29236;SDS011;16266;50.866;4.398;2023-09-07T03:24:52;302.27;;;290.13;;
29236;SDS011;16266;50.866;4.398;2023-09-07T03:27:17;313.35;;;300.83;;
29236;SDS011;16266;50.866;4.398;2023-09-07T03:29:46;320.63;;;307.25;;
29236;SDS011;16266;50.866;4.398;2023-09-07T03:32:14;337.13;;;323.40;;
29236;SDS011;16266;50.866;4.398;2023-09-07T03:34:40;367.08;;;351.67;;
29236;SDS011;16266;50.866;4.398;2023-09-07T03:37:05;367.33;;;351.90;;
29236;SDS011;16266;50.866;4.398;2023-09-07T03:39:31;384.00;;;368.27;;
29236;SDS011;16266;50.866;4.398;2023-09-07T03:41:57;367.75;;;352.58;;
29236;SDS011;16266;50.866;4.398;2023-09-07T03:44:23;350.50;;;335.98;;
29236;SDS011;16266;50.866;4.398;2023-09-07T03:46:49;319.42;;;306.30;;
29236;SDS011;16266;50.866;4.398;2023-09-07T03:49:14;286.60;;;274.90;;
29236;SDS011;16266;50.866;4.398;2023-09-07T03:51:40;245.13;;;235.43;;
29236;SDS011;16266;50.866;4.398;2023-09-07T03:54:06;233.52;;;224.18;;
29236;SDS011;16266;50.866;4.398;2023-09-07T03:56:32;227.80;;;218.60;;
29236;SDS011;16266;50.866;4.398;2023-09-07T03:58:57;227.25;;;217.82;;
29236;SDS011;16266;50.866;4.398;2023-09-07T04:01:23;245.45;;;235.38;;
29236;SDS011;16266;50.866;4.398;2023-09-07T04:03:48;283.45;;;271.40;;
29236;SDS011;16266;50.866;4.398;2023-09-07T04:06:15;286.33;;;274.38;;
29236;SDS011;16266;50.866;4.398;2023-09-07T04:08:41;373.67;;;357.27;;
29236;SDS011;16266;50.866;4.398;2023-09-07T04:11:06;606.20;;;575.05;;
29236;SDS011;16266;50.866;4.398;2023-09-07T04:13:32;603.45;;;574.45;;
29236;SDS011;16266;50.866;4.398;2023-09-07T04:15:58;684.75;;;649.85;;
29236;SDS011;16266;50.866;4.398;2023-09-07T04:18:23;634.30;;;602.88;;
29236;SDS011;16266;50.866;4.398;2023-09-07T04:20:49;599.08;;;568.25;;
29236;SDS011;16266;50.866;4.398;2023-09-07T04:23:15;453.38;;;431.27;;
29236;SDS011;16266;50.866;4.398;2023-09-07T04:25:40;395.92;;;376.50;;
29236;SDS011;16266;50.866;4.398;2023-09-07T04:28:06;354.92;;;337.35;;
29236;SDS011;16266;50.866;4.398;2023-09-07T04:30:33;360.33;;;341.92;;
29236;SDS011;16266;50.866;4.398;2023-09-07T04:33:05;487.52;;;460.08;;
29236;SDS011;16266;50.866;4.398;2023-09-07T04:35:32;481.13;;;455.23;;
29236;SDS011;16266;50.866;4.398;2023-09-07T04:37:58;536.75;;;508.10;;
29236;SDS011;16266;50.866;4.398;2023-09-07T04:40:24;691.67;;;650.47;;
29236;SDS011;16266;50.866;4.398;2023-09-07T04:42:50;648.13;;;611.17;;
29236;SDS011;16266;50.866;4.398;2023-09-07T04:45:16;653.45;;;615.92;;
29236;SDS011;16266;50.866;4.398;2023-09-07T04:47:42;638.58;;;602.75;;
29236;SDS011;16266;50.866;4.398;2023-09-07T04:50:08;644.47;;;608.28;;
29236;SDS011;16266;50.866;4.398;2023-09-07T04:52:34;628.72;;;593.90;;
29236;SDS011;16266;50.866;4.398;2023-09-07T04:55:01;645.03;;;609.13;;
29236;SDS011;16266;50.866;4.398;2023-09-07T04:57:27;624.30;;;590.00;;
29236;SDS011;16266;50.866;4.398;2023-09-07T04:59:52;621.97;;;587.40;;
29236;SDS011;16266;50.866;4.398;2023-09-07T05:02:18;695.88;;;654.28;;
29236;SDS011;16266;50.866;4.398;2023-09-07T05:04:44;590.55;;;559.03;;
29236;SDS011;16266;50.866;4.398;2023-09-07T05:07:10;590.92;;;558.42;;
29236;SDS011;16266;50.866;4.398;2023-09-07T05:09:36;561.55;;;531.80;;
29236;SDS011;16266;50.866;4.398;2023-09-07T05:12:01;520.58;;;492.38;;
29236;SDS011;16266;50.866;4.398;2023-09-07T05:14:27;481.75;;;456.73;;
29236;SDS011;16266;50.866;4.398;2023-09-07T05:16:54;559.55;;;530.08;;
29236;SDS011;16266;50.866;4.398;2023-09-07T05:19:21;635.75;;;601.53;;
29236;SDS011;16266;50.866;4.398;2023-09-07T05:21:47;632.17;;;599.75;;
29236;SDS011;16266;50.866;4.398;2023-09-07T05:24:13;687.58;;;651.20;;
29236;SDS011;16266;50.866;4.398;2023-09-07T05:26:41;696.40;;;659.00;;
29236;SDS011;16266;50.866;4.398;2023-09-07T05:29:07;709.50;;;671.20;;
29236;SDS011;16266;50.866;4.398;2023-09-07T05:31:33;936.97;;;865.10;;
29236;SDS011;16266;50.866;4.398;2023-09-07T05:33:58;700.53;;;662.95;;
29236;SDS011;16266;50.866;4.398;2023-09-07T05:36:25;698.80;;;660.95;;
29236;SDS011;16266;50.866;4.398;2023-09-07T05:38:52;708.65;;;669.80;;
29236;SDS011;16266;50.866;4.398;2023-09-07T05:41:17;744.40;;;700.00;;
29236;SDS011;16266;50.866;4.398;2023-09-07T05:43:43;769.30;;;719.58;;
29236;SDS011;16266;50.866;4.398;2023-09-07T05:46:09;718.90;;;676.60;;
29236;SDS011;16266;50.866;4.398;2023-09-07T05:48:35;667.63;;;633.28;;
29236;SDS011;16266;50.866;4.398;2023-09-07T05:51:00;578.42;;;544.67;;
29236;SDS011;16266;50.866;4.398;2023-09-07T05:53:26;515.28;;;489.55;;
29236;SDS011;16266;50.866;4.398;2023-09-07T05:55:52;406.30;;;388.60;;
29236;SDS011;16266;50.866;4.398;2023-09-07T05:58:17;159.15;;;152.25;;
29236;SDS011;16266;50.866;4.398;2023-09-07T06:00:43;183.55;;;176.23;;
29236;SDS011;16266;50.866;4.398;2023-09-07T06:03:09;198.55;;;190.65;;
29236;SDS011;16266;50.866;4.398;2023-09-07T06:05:35;251.98;;;241.57;;
29236;SDS011;16266;50.866;4.398;2023-09-07T06:08:02;123.60;;;118.25;;
29236;SDS011;16266;50.866;4.398;2023-09-07T06:10:28;100.20;;;95.95;;
29236;SDS011;16266;50.866;4.398;2023-09-07T06:12:55;67.47;;;64.50;;
29236;SDS011;16266;50.866;4.398;2023-09-07T06:15:21;200.68;;;192.77;;
29236;SDS011;16266;50.866;4.398;2023-09-07T06:17:48;42.13;;;40.35;;
29236;SDS011;16266;50.866;4.398;2023-09-07T06:20:15;24.65;;;23.45;;
29236;SDS011;16266;50.866;4.398;2023-09-07T06:22:40;23.13;;;21.85;;
29236;SDS011;16266;50.866;4.398;2023-09-07T06:25:06;132.40;;;126.95;;
29236;SDS011;16266;50.866;4.398;2023-09-07T06:27:32;24.92;;;23.80;;
29236;SDS011;16266;50.866;4.398;2023-09-07T06:29:58;156.55;;;149.55;;
29236;SDS011;16266;50.866;4.398;2023-09-07T06:32:24;22.80;;;21.45;;
29236;SDS011;16266;50.866;4.398;2023-09-07T06:34:49;20.25;;;19.25;;
29236;SDS011;16266;50.866;4.398;2023-09-07T06:37:15;17.83;;;16.83;;
29236;SDS011;16266;50.866;4.398;2023-09-07T06:39:41;18.88;;;17.88;;
29236;SDS011;16266;50.866;4.398;2023-09-07T06:42:10;21.55;;;20.20;;
29236;SDS011;16266;50.866;4.398;2023-09-07T06:44:35;19.85;;;18.50;;
29236;SDS011;16266;50.866;4.398;2023-09-07T06:47:01;16.98;;;16.08;;
29236;SDS011;16266;50.866;4.398;2023-09-07T06:49:27;17.67;;;16.67;;
29236;SDS011;16266;50.866;4.398;2023-09-07T06:51:55;17.10;;;16.40;;
29236;SDS011;16266;50.866;4.398;2023-09-07T06:54:21;16.60;;;15.80;;
29236;SDS011;16266;50.866;4.398;2023-09-07T06:56:47;20.00;;;18.63;;
29236;SDS011;16266;50.866;4.398;2023-09-07T06:59:13;18.60;;;17.73;;
29236;SDS011;16266;50.866;4.398;2023-09-07T07:01:39;28.45;;;26.48;;
29236;SDS011;16266;50.866;4.398;2023-09-07T07:04:05;22.90;;;21.83;;
29236;SDS011;16266;50.866;4.398;2023-09-07T07:06:31;22.77;;;20.70;;
29236;SDS011;16266;50.866;4.398;2023-09-07T07:08:57;20.17;;;19.25;;
29236;SDS011;16266;50.866;4.398;2023-09-07T07:11:22;17.83;;;17.02;;
29236;SDS011;16266;50.866;4.398;2023-09-07T07:13:48;18.45;;;17.55;;
29236;SDS011;16266;50.866;4.398;2023-09-07T07:16:13;19.42;;;18.40;;
29236;SDS011;16266;50.866;4.398;2023-09-07T07:18:39;20.15;;;19.15;;
29236;SDS011;16266;50.866;4.398;2023-09-07T07:21:05;18.80;;;17.63;;
29236;SDS011;16266;50.866;4.398;2023-09-07T07:23:31;16.27;;;15.68;;
29236;SDS011;16266;50.866;4.398;2023-09-07T07:25:56;15.38;;;14.75;;
29236;SDS011;16266;50.866;4.398;2023-09-07T07:28:22;17.67;;;16.52;;
29236;SDS011;16266;50.866;4.398;2023-09-07T07:30:48;17.85;;;17.05;;
29236;SDS011;16266;50.866;4.398;2023-09-07T07:33:13;14.68;;;14.07;;
29236;SDS011;16266;50.866;4.398;2023-09-07T07:35:39;15.80;;;15.00;;
29236;SDS011;16266;50.866;4.398;2023-09-07T07:38:05;15.07;;;14.43;;
29236;SDS011;16266;50.866;4.398;2023-09-07T07:40:32;19.63;;;18.23;;
29236;SDS011;16266;50.866;4.398;2023-09-07T07:42:58;17.17;;;16.48;;
29236;SDS011;16266;50.866;4.398;2023-09-07T07:45:24;15.43;;;14.77;;
29236;SDS011;16266;50.866;4.398;2023-09-07T07:47:50;17.13;;;15.88;;
29236;SDS011;16266;50.866;4.398;2023-09-07T07:50:16;18.10;;;17.05;;
29236;SDS011;16266;50.866;4.398;2023-09-07T07:52:42;16.25;;;15.57;;
29236;SDS011;16266;50.866;4.398;2023-09-07T07:55:09;16.80;;;15.80;;
29236;SDS011;16266;50.866;4.398;2023-09-07T07:57:35;17.65;;;16.75;;
29236;SDS011;16266;50.866;4.398;2023-09-07T08:00:01;13.90;;;13.40;;
29236;SDS011;16266;50.866;4.398;2023-09-07T08:02:29;16.50;;;15.80;;
29236;SDS011;16266;50.866;4.398;2023-09-07T08:04:55;17.83;;;16.92;;
29236;SDS011;16266;50.866;4.398;2023-09-07T08:07:22;16.42;;;15.63;;
29236;SDS011;16266;50.866;4.398;2023-09-07T08:09:47;15.73;;;15.02;;
29236;SDS011;16266;50.866;4.398;2023-09-07T08:12:13;15.35;;;14.77;;
29236;SDS011;16266;50.866;4.398;2023-09-07T08:14:38;16.92;;;16.23;;
29236;SDS011;16266;50.866;4.398;2023-09-07T08:17:04;14.23;;;13.63;;
29236;SDS011;16266;50.866;4.398;2023-09-07T08:19:30;14.77;;;14.23;;
29236;SDS011;16266;50.866;4.398;2023-09-07T08:21:57;16.08;;;15.23;;
29236;SDS011;16266;50.866;4.398;2023-09-07T08:24:23;14.75;;;14.05;;
29236;SDS011;16266;50.866;4.398;2023-09-07T08:26:49;17.63;;;16.73;;
29236;SDS011;16266;50.866;4.398;2023-09-07T08:29:16;15.02;;;14.43;;
29236;SDS011;16266;50.866;4.398;2023-09-07T08:31:41;16.17;;;15.48;;
29236;SDS011;16266;50.866;4.398;2023-09-07T08:34:10;17.15;;;16.35;;
29236;SDS011;16266;50.866;4.398;2023-09-07T08:36:40;19.45;;;18.00;;
29236;SDS011;16266;50.866;4.398;2023-09-07T08:39:06;18.02;;;17.13;;
29236;SDS011;16266;50.866;4.398;2023-09-07T08:44:12;16.05;;;15.43;;
29236;SDS011;16266;50.866;4.398;2023-09-07T08:46:42;16.40;;;15.75;;
29236;SDS011;16266;50.866;4.398;2023-09-07T08:49:10;17.10;;;16.30;;
29236;SDS011;16266;50.866;4.398;2023-09-07T08:51:37;16.15;;;15.35;;
29236;SDS011;16266;50.866;4.398;2023-09-07T08:54:03;15.60;;;15.02;;
29236;SDS011;16266;50.866;4.398;2023-09-07T08:56:30;16.20;;;15.70;;
29236;SDS011;16266;50.866;4.398;2023-09-07T08:58:56;14.82;;;14.18;;
29236;SDS011;16266;50.866;4.398;2023-09-07T09:01:22;16.95;;;16.15;;
29236;SDS011;16266;50.866;4.398;2023-09-07T09:03:51;15.70;;;15.00;;
29236;SDS011;16266;50.866;4.398;2023-09-07T11:29:09;19.00;;;18.30;;
29236;SDS011;16266;50.866;4.398;2023-09-07T11:34:08;18.52;;;17.27;;
29236;SDS011;16266;50.866;4.398;2023-09-07T11:36:35;18.27;;;17.67;;
29236;SDS011;16266;50.866;4.398;2023-09-07T11:39:00;17.90;;;16.60;;
29236;SDS011;16266;50.866;4.398;2023-09-07T11:41:31;17.83;;;17.23;;
29236;SDS011;16266;50.866;4.398;2023-09-07T11:43:56;18.35;;;17.73;;
29236;SDS011;16266;50.866;4.398;2023-09-07T11:46:22;17.80;;;17.05;;
29236;SDS011;16266;50.866;4.398;2023-09-07T11:48:47;17.73;;;16.85;;
29236;SDS011;16266;50.866;4.398;2023-09-07T11:51:13;17.38;;;16.75;;
29236;SDS011;16266;50.866;4.398;2023-09-07T11:53:39;17.83;;;17.02;;
29236;SDS011;16266;50.866;4.398;2023-09-07T11:56:05;18.05;;;17.45;;
29236;SDS011;16266;50.866;4.398;2023-09-07T11:58:30;17.67;;;16.80;;
29236;SDS011;16266;50.866;4.398;2023-09-07T12:00:56;16.63;;;16.08;;
29236;SDS011;16266;50.866;4.398;2023-09-07T12:03:21;18.60;;;17.45;;
29236;SDS011;16266;50.866;4.398;2023-09-07T12:05:47;19.15;;;18.45;;
29236;SDS011;16266;50.866;4.398;2023-09-07T12:08:13;20.65;;;18.60;;
29236;SDS011;16266;50.866;4.398;2023-09-07T12:10:39;17.52;;;16.92;;
29236;SDS011;16266;50.866;4.398;2023-09-07T12:13:05;15.13;;;14.63;;
29236;SDS011;16266;50.866;4.398;2023-09-07T12:15:30;17.25;;;16.65;;
29236;SDS011;16266;50.866;4.398;2023-09-07T12:17:56;17.90;;;17.30;;
29236;SDS011;16266;50.866;4.398;2023-09-07T12:20:22;17.80;;;17.10;;
29236;SDS011;16266;50.866;4.398;2023-09-07T12:22:48;16.02;;;15.45;;
29236;SDS011;16266;50.866;4.398;2023-09-07T12:25:14;16.98;;;16.20;;
29236;SDS011;16266;50.866;4.398;2023-09-07T12:27:40;19.48;;;18.67;;
29236;SDS011;16266;50.866;4.398;2023-09-07T12:30:08;16.30;;;15.70;;
29236;SDS011;16266;50.866;4.398;2023-09-07T12:32:37;20.40;;;19.33;;
29236;SDS011;16266;50.866;4.398;2023-09-07T12:35:04;17.90;;;17.20;;
29236;SDS011;16266;50.866;4.398;2023-09-07T12:40:00;16.77;;;16.17;;
29236;SDS011;16266;50.866;4.398;2023-09-07T12:42:26;18.02;;;17.33;;
29236;SDS011;16266;50.866;4.398;2023-09-07T12:44:51;17.80;;;17.05;;
29236;SDS011;16266;50.866;4.398;2023-09-07T12:47:17;17.20;;;16.60;;
29236;SDS011;16266;50.866;4.398;2023-09-07T12:49:43;17.10;;;16.45;;
29236;SDS011;16266;50.866;4.398;2023-09-07T12:52:08;17.40;;;16.80;;
29236;SDS011;16266;50.866;4.398;2023-09-07T12:54:36;17.50;;;16.80;;
29236;SDS011;16266;50.866;4.398;2023-09-07T12:57:02;21.27;;;20.15;;
29236;SDS011;16266;50.866;4.398;2023-09-07T12:59:28;18.73;;;18.02;;
29236;SDS011;16266;50.866;4.398;2023-09-07T13:01:54;18.85;;;18.05;;
29236;SDS011;16266;50.866;4.398;2023-09-07T13:04:22;18.70;;;17.57;;
29236;SDS011;16266;50.866;4.398;2023-09-07T13:06:48;18.50;;;17.80;;
29236;SDS011;16266;50.866;4.398;2023-09-07T13:09:14;18.35;;;17.75;;
29236;SDS011;16266;50.866;4.398;2023-09-07T13:11:39;18.00;;;17.35;;
29236;SDS011;16266;50.866;4.398;2023-09-07T13:14:05;15.85;;;15.20;;
29236;SDS011;16266;50.866;4.398;2023-09-07T13:16:33;16.15;;;15.55;;
29236;SDS011;16266;50.866;4.398;2023-09-07T13:18:59;18.08;;;17.38;;
29236;SDS011;16266;50.866;4.398;2023-09-07T13:21:25;16.85;;;16.25;;
29236;SDS011;16266;50.866;4.398;2023-09-07T13:23:50;15.80;;;15.18;;
29236;SDS011;16266;50.866;4.398;2023-09-07T13:26:16;17.05;;;16.33;;
29236;SDS011;16266;50.866;4.398;2023-09-07T13:28:42;14.85;;;14.35;;
29236;SDS011;16266;50.866;4.398;2023-09-07T13:31:07;16.25;;;15.65;;
29236;SDS011;16266;50.866;4.398;2023-09-07T13:33:33;16.67;;;16.08;;
29236;SDS011;16266;50.866;4.398;2023-09-07T13:35:58;16.63;;;16.02;;
29236;SDS011;16266;50.866;4.398;2023-09-07T13:38:24;18.30;;;17.60;;
29236;SDS011;16266;50.866;4.398;2023-09-07T13:40:50;21.60;;;20.73;;
29236;SDS011;16266;50.866;4.398;2023-09-07T13:43:16;19.08;;;18.27;;
29236;SDS011;16266;50.866;4.398;2023-09-07T13:45:41;21.90;;;21.00;;
29236;SDS011;16266;50.866;4.398;2023-09-07T13:48:09;16.25;;;15.65;;
29236;SDS011;16266;50.866;4.398;2023-09-07T13:50:34;22.27;;;21.38;;
29236;SDS011;16266;50.866;4.398;2023-09-07T13:53:00;19.02;;;18.33;;
29236;SDS011;16266;50.866;4.398;2023-09-07T13:55:26;17.80;;;17.08;;
29236;SDS011;16266;50.866;4.398;2023-09-07T13:57:51;17.35;;;16.65;;
29236;SDS011;16266;50.866;4.398;2023-09-07T14:00:17;16.83;;;16.10;;
29236;SDS011;16266;50.866;4.398;2023-09-07T14:02:43;17.50;;;16.80;;
29236;SDS011;16266;50.866;4.398;2023-09-07T14:05:09;19.15;;;18.35;;
29236;SDS011;16266;50.866;4.398;2023-09-07T14:07:34;16.80;;;16.20;;
29236;SDS011;16266;50.866;4.398;2023-09-07T14:10:00;16.58;;;15.98;;
29236;SDS011;16266;50.866;4.398;2023-09-07T14:12:26;16.58;;;15.93;;
29236;SDS011;16266;50.866;4.398;2023-09-07T14:14:52;15.73;;;15.13;;
29236;SDS011;16266;50.866;4.398;2023-09-07T14:17:18;17.42;;;16.67;;
29236;SDS011;16266;50.866;4.398;2023-09-07T14:19:43;18.23;;;17.45;;
29236;SDS011;16266;50.866;4.398;2023-09-07T14:22:11;18.98;;;18.17;;
29236;SDS011;16266;50.866;4.398;2023-09-07T14:24:37;17.88;;;17.23;;
29236;SDS011;16266;50.866;4.398;2023-09-07T14:27:03;18.58;;;17.05;;
29236;SDS011;16266;50.866;4.398;2023-09-07T14:29:29;19.30;;;18.45;;
29236;SDS011;16266;50.866;4.398;2023-09-07T14:31:55;17.20;;;16.58;;
29236;SDS011;16266;50.866;4.398;2023-09-07T14:34:20;16.55;;;15.95;;
29236;SDS011;16266;50.866;4.398;2023-09-07T14:36:46;17.52;;;16.83;;
29236;SDS011;16266;50.866;4.398;2023-09-07T14:39:12;18.13;;;17.48;;
29236;SDS011;16266;50.866;4.398;2023-09-07T14:41:38;17.65;;;16.95;;
29236;SDS011;16266;50.866;4.398;2023-09-07T14:44:05;17.45;;;16.85;;
29236;SDS011;16266;50.866;4.398;2023-09-07T14:46:31;19.55;;;18.83;;
29236;SDS011;16266;50.866;4.398;2023-09-07T14:48:57;23.33;;;22.52;;
29236;SDS011;16266;50.866;4.398;2023-09-07T14:51:23;23.15;;;22.35;;
29236;SDS011;16266;50.866;4.398;2023-09-07T14:53:49;22.88;;;22.08;;
29236;SDS011;16266;50.866;4.398;2023-09-07T14:56:14;24.85;;;23.92;;
29236;SDS011;16266;50.866;4.398;2023-09-07T14:58:40;21.70;;;20.85;;
29236;SDS011;16266;50.866;4.398;2023-09-07T15:01:06;19.30;;;18.60;;
29236;SDS011;16266;50.866;4.398;2023-09-07T15:03:32;16.67;;;16.00;;
29236;SDS011;16266;50.866;4.398;2023-09-07T15:05:58;18.50;;;17.90;;
29236;SDS011;16266;50.866;4.398;2023-09-07T15:08:24;22.02;;;21.25;;
29236;SDS011;16266;50.866;4.398;2023-09-07T15:10:49;24.85;;;23.55;;
29236;SDS011;16266;50.866;4.398;2023-09-07T15:13:15;27.27;;;26.27;;
29236;SDS011;16266;50.866;4.398;2023-09-07T15:15:41;25.20;;;24.20;;
29236;SDS011;16266;50.866;4.398;2023-09-07T15:18:08;25.75;;;24.73;;
29236;SDS011;16266;50.866;4.398;2023-09-07T15:20:34;21.00;;;20.13;;
29236;SDS011;16266;50.866;4.398;2023-09-07T15:23:00;19.73;;;18.85;;
29236;SDS011;16266;50.866;4.398;2023-09-07T15:25:28;20.33;;;19.58;;
29236;SDS011;16266;50.866;4.398;2023-09-07T15:27:55;18.27;;;17.48;;
29236;SDS011;16266;50.866;4.398;2023-09-07T15:30:21;16.73;;;16.10;;
29236;SDS011;16266;50.866;4.398;2023-09-07T15:32:49;16.63;;;16.02;;
29236;SDS011;16266;50.866;4.398;2023-09-07T15:35:15;17.30;;;16.40;;
29236;SDS011;16266;50.866;4.398;2023-09-07T15:37:41;20.52;;;19.73;;
29236;SDS011;16266;50.866;4.398;2023-09-07T15:40:11;21.10;;;20.23;;
29236;SDS011;16266;50.866;4.398;2023-09-07T15:42:38;26.20;;;25.10;;
29236;SDS011;16266;50.866;4.398;2023-09-07T15:45:05;24.55;;;23.65;;
29236;SDS011;16266;50.866;4.398;2023-09-07T15:47:31;35.28;;;33.80;;
29236;SDS011;16266;50.866;4.398;2023-09-07T15:49:59;35.20;;;33.92;;
29236;SDS011;16266;50.866;4.398;2023-09-07T15:52:25;26.48;;;24.90;;
29236;SDS011;16266;50.866;4.398;2023-09-07T15:54:51;30.40;;;29.33;;
29236;SDS011;16266;50.866;4.398;2023-09-07T15:57:17;28.98;;;27.98;;
29236;SDS011;16266;50.866;4.398;2023-09-07T15:59:44;26.40;;;25.40;;
29236;SDS011;16266;50.866;4.398;2023-09-07T16:02:10;24.63;;;23.73;;
29236;SDS011;16266;50.866;4.398;2023-09-07T16:04:36;23.60;;;22.70;;
29236;SDS011;16266;50.866;4.398;2023-09-07T16:07:01;19.20;;;18.40;;
29236;SDS011;16266;50.866;4.398;2023-09-07T16:09:27;18.55;;;17.85;;
29236;SDS011;16266;50.866;4.398;2023-09-07T16:11:53;18.05;;;17.35;;
29236;SDS011;16266;50.866;4.398;2023-09-07T16:14:19;18.42;;;17.80;;
29236;SDS011;16266;50.866;4.398;2023-09-07T16:16:44;24.85;;;23.92;;
29236;SDS011;16266;50.866;4.398;2023-09-07T16:19:10;27.85;;;26.85;;
29236;SDS011;16266;50.866;4.398;2023-09-07T16:21:36;32.95;;;31.60;;
29236;SDS011;16266;50.866;4.398;2023-09-07T16:24:01;32.92;;;31.70;;
29236;SDS011;16266;50.866;4.398;2023-09-07T16:26:27;26.38;;;25.40;;
29236;SDS011;16266;50.866;4.398;2023-09-07T16:28:53;42.78;;;41.22;;
29236;SDS011;16266;50.866;4.398;2023-09-07T16:31:19;42.83;;;41.22;;
29236;SDS011;16266;50.866;4.398;2023-09-07T16:33:45;53.40;;;51.35;;
29236;SDS011;16266;50.866;4.398;2023-09-07T16:36:10;66.43;;;63.90;;
29236;SDS011;16266;50.866;4.398;2023-09-07T16:38:36;73.00;;;70.22;;